Time;durP1;ratioP1;P1;durP2;ratioP2;P2;SDS_P1;SDS_P2;PMS_P1;PMS_P2;Temp;Humidity;BMP_temperature;BMP_pressure;BME280_temperature;BME280_humidity;BME280_pressure;Samples;Min_cycle;Max_cycle;Signal;HPM_P1;HPM_P2
2023/01/20 00:01:05;;;;;;;41.80;24.20;;;;;;;-0.33;100.00;97352.09;106947;1248;60138;-78
2023/01/20 00:03:33;;;;;;;45.50;26.00;;;;;;;-0.35;100.00;97356.60;106973;1247;70723;-77
2023/01/20 00:06:00;;;;;;;34.00;19.40;;;;;;;-0.35;100.00;97354.19;106836;1248;60771;-77
2023/01/20 00:08:26;;;;;;;32.70;16.80;;;;;;;-0.34;100.00;97351.48;106936;1248;60019;-77
2023/01/20 00:10:53;;;;;;;35.30;17.90;;;;;;;-0.35;100.00;97356.55;107036;1248;60832;-78
2023/01/20 00:13:19;;;;;;;36.30;18.80;;;;;;;-0.37;100.00;97362.66;106811;1247;61336;-77
2023/01/20 00:15:45;;;;;;;56.70;28.00;;;;;;;-0.41;100.00;97371.08;106983;1248;61972;-78
2023/01/20 00:18:12;;;;;;;49.50;27.80;;;;;;;-0.45;100.00;97369.73;106970;1247;61986;-77
2023/01/20 00:20:38;;;;;;;39.90;21.90;;;;;;;-0.48;100.00;97377.77;106976;1248;61983;-77
2023/01/20 00:23:04;;;;;;;41.20;22.30;;;;;;;-0.47;100.00;97378.57;106814;1247;60919;-77
2023/01/20 00:25:36;;;;;;;43.20;23.50;;;;;;;-0.44;100.00;97374.55;106998;1248;61351;-78
2023/01/20 00:28:02;;;;;;;44.20;22.30;;;;;;;-0.42;100.00;97377.80;106805;1247;62323;-77
2023/01/20 00:30:29;;;;;;;48.80;26.00;;;;;;;-0.42;100.00;97383.30;106788;1247;71536;-77
2023/01/20 00:32:56;;;;;;;49.40;26.70;;;;;;;-0.43;100.00;97365.77;107014;1247;61269;-78
2023/01/20 00:35:22;;;;;;;48.30;26.60;;;;;;;-0.41;100.00;97344.46;106962;1252;59845;-77
2023/01/20 00:37:48;;;;;;;51.20;27.90;;;;;;;-0.41;100.00;97340.48;106957;1248;61713;-77
2023/01/20 00:40:15;;;;;;;57.10;28.20;;;;;;;-0.41;100.00;97342.40;106934;1247;59819;-78
2023/01/20 00:42:41;;;;;;;56.00;29.10;;;;;;;-0.42;100.00;97353.23;106969;1248;59979;-77
2023/01/20 00:45:08;;;;;;;45.60;26.10;;;;;;;-0.41;100.00;97367.59;106942;1248;60136;-77
2023/01/20 00:47:34;;;;;;;48.40;29.40;;;;;;;-0.42;100.00;97382.30;106991;1247;60235;-76
2023/01/20 00:50:01;;;;;;;64.50;37.90;;;;;;;-0.43;100.00;97392.45;106980;1248;60040;-78
2023/01/20 00:52:27;;;;;;;58.80;37.70;;;;;;;-0.43;100.00;97394.11;106942;1248;61343;-78
2023/01/20 00:54:54;;;;;;;48.30;27.50;;;;;;;-0.40;100.00;97384.90;106781;1253;62156;-77
2023/01/20 00:57:20;;;;;;;66.90;35.80;;;;;;;-0.37;100.00;97384.53;106936;1251;59930;-78
2023/01/20 00:59:46;;;;;;;56.10;33.30;;;;;;;-0.37;100.00;97393.75;106957;1248;59976;-78
2023/01/20 01:02:13;;;;;;;42.60;24.50;;;;;;;-0.38;100.00;97395.40;106949;1248;61209;-78
2023/01/20 01:04:39;;;;;;;47.20;22.70;;;;;;;-0.37;100.00;97388.02;106854;1248;62172;-78
2023/01/20 01:07:06;;;;;;;42.60;24.40;;;;;;;-0.37;100.00;97386.20;106938;1247;59873;-76
2023/01/20 01:09:32;;;;;;;46.90;24.80;;;;;;;-0.38;100.00;97386.13;106981;1248;59931;-77
2023/01/20 01:11:59;;;;;;;43.90;24.90;;;;;;;-0.39;100.00;97372.27;106950;1247;60924;-78
2023/01/20 01:14:25;;;;;;;46.30;24.10;;;;;;;-0.38;100.00;97374.09;107015;1252;61418;-78
2023/01/20 01:16:51;;;;;;;56.30;27.30;;;;;;;-0.36;100.00;97376.52;106927;1251;59974;-78
2023/01/20 01:19:18;;;;;;;60.30;28.40;;;;;;;-0.34;100.00;97375.73;106857;1251;60876;-77
2023/01/20 01:21:44;;;;;;;57.40;31.70;;;;;;;-0.32;100.00;97365.46;106887;1251;62145;-78
2023/01/20 01:24:11;;;;;;;55.90;29.70;;;;;;;-0.32;100.00;97359.52;106934;1251;60865;-77
2023/01/20 01:26:37;;;;;;;51.40;29.20;;;;;;;-0.32;100.00;97361.20;106929;1251;61002;-78
2023/01/20 01:29:03;;;;;;;62.90;34.30;;;;;;;-0.33;100.00;97364.01;106967;1251;59886;-77
2023/01/20 01:31:29;;;;;;;59.00;30.90;;;;;;;-0.35;100.00;97367.09;106915;1251;61352;-77
2023/01/20 01:33:56;;;;;;;60.40;30.70;;;;;;;-0.36;100.00;97368.81;106986;1252;60896;-77
2023/01/20 01:36:22;;;;;;;59.40;28.90;;;;;;;-0.34;100.00;97375.16;106840;1251;60603;-77
2023/01/20 01:38:49;;;;;;;58.30;33.50;;;;;;;-0.31;100.00;97381.46;106943;1253;61450;-78
2023/01/20 01:41:15;;;;;;;65.30;32.40;;;;;;;-0.30;100.00;97387.46;106931;1251;61672;-77
2023/01/20 01:44:05;;;;;;;51.40;25.50;;;;;;;-0.27;100.00;97402.13;106687;1251;60695;-78
2023/01/20 01:46:31;;;;;;;43.50;25.00;;;;;;;-0.25;100.00;97393.23;106928;1250;60326;-76
2023/01/20 01:49:03;;;;;;;48.70;26.00;;;;;;;-0.23;100.00;97394.40;106958;1251;59724;-77
2023/01/20 01:51:36;;;;;;;49.20;27.90;;;;;;;-0.22;100.00;97389.65;106795;1248;64754;-76
2023/01/20 01:54:22;;;;;;;64.30;36.60;;;;;;;-0.19;100.00;97382.08;106982;1248;72287;-77
2023/01/20 01:56:49;;;;;;;67.40;37.90;;;;;;;-0.21;100.00;97385.62;106882;1253;71460;-78
2023/01/20 01:59:15;;;;;;;65.10;35.90;;;;;;;-0.22;100.00;97394.16;106995;1248;61237;-77
2023/01/20 02:01:45;;;;;;;68.30;35.00;;;;;;;-0.23;100.00;97400.27;106965;1248;62101;-78
2023/01/20 02:04:13;;;;;;;50.60;29.00;;;;;;;-0.23;100.00;97404.42;106801;1248;74586;-77
2023/01/20 02:06:44;;;;;;;58.50;29.70;;;;;;;-0.24;100.00;97409.44;107010;1248;69488;-79
2023/01/20 02:09:11;;;;;;;44.90;27.40;;;;;;;-0.31;100.00;97399.03;107036;1249;71554;-77
2023/01/20 02:11:40;;;;;;;56.50;31.90;;;;;;;-0.37;100.00;97398.98;106770;1251;61009;-78
2023/01/20 02:14:07;;;;;;;53.00;29.70;;;;;;;-0.36;100.00;97398.73;106950;1250;59801;-77
2023/01/20 02:16:51;;;;;;;51.60;29.70;;;;;;;-0.35;100.00;97395.35;106785;1249;65924;-77
2023/01/20 02:19:27;;;;;;;47.10;27.70;;;;;;;-0.32;100.00;97400.82;106843;1249;70071;-77
2023/01/20 02:22:12;;;;;;;46.30;24.20;;;;;;;-0.32;100.00;97398.55;106778;1250;72559;-78
2023/01/20 02:24:57;;;;;;;40.90;23.70;;;;;;;-0.32;100.00;97400.61;106793;1250;61356;-78
2023/01/20 02:27:44;;;;;;;52.70;27.00;;;;;;;-0.31;100.00;97407.52;106809;1249;59823;-77
2023/01/20 02:30:13;;;;;;;48.60;26.60;;;;;;;-0.30;100.00;97409.34;106698;1250;65930;-76
2023/01/20 02:32:42;;;;;;;43.70;25.00;;;;;;;-0.29;100.00;97416.41;106841;1250;62303;-77
2023/01/20 02:35:12;;;;;;;50.80;25.60;;;;;;;-0.28;100.00;97412.64;106827;1250;63422;-78
2023/01/20 02:37:46;;;;;;;39.80;22.90;;;;;;;-0.28;100.00;97412.79;106861;1249;60916;-78
2023/01/20 02:40:27;;;;;;;39.20;19.60;;;;;;;-0.27;100.00;97418.77;106892;1249;61176;-78
2023/01/20 02:42:58;;;;;;;37.80;20.40;;;;;;;-0.27;100.00;97423.10;106821;1250;66431;-77
2023/01/20 02:45:33;;;;;;;41.30;22.40;;;;;;;-0.26;100.00;97429.08;106802;1250;69808;-77
2023/01/20 02:48:14;;;;;;;42.80;23.90;;;;;;;-0.25;100.00;97429.11;106886;1250;74064;-76
2023/01/20 02:50:48;;;;;;;37.80;20.90;;;;;;;-0.23;100.00;97429.77;106769;1250;61887;-78
2023/01/20 02:53:14;;;;;;;34.90;20.30;;;;;;;-0.23;100.00;97425.73;107066;1248;60197;-77
2023/01/20 02:55:47;;;;;;;41.30;21.10;;;;;;;-0.23;100.00;97423.96;107002;1248;59804;-78
2023/01/20 02:58:36;;;;;;;48.20;27.50;;;;;;;-0.25;100.00;97420.66;106766;1247;70957;-78
2023/01/20 03:01:19;;;;;;;51.50;26.10;;;;;;;-0.32;100.00;97413.59;106941;1248;72443;-78
2023/01/20 03:03:46;;;;;;;64.10;29.10;;;;;;;-0.34;100.00;97411.89;107053;1247;62104;-77
2023/01/20 03:06:17;;;;;;;66.30;29.50;;;;;;;-0.38;100.00;97413.22;106762;1248;60324;-77
2023/01/20 03:08:43;;;;;;;61.30;30.00;;;;;;;-0.44;100.00;97411.83;107166;1253;74663;-77
2023/01/20 03:11:10;;;;;;;70.90;33.40;;;;;;;-0.43;100.00;97413.79;106930;1248;59867;-77
2023/01/20 03:13:54;;;;;;;72.50;34.70;;;;;;;-0.46;100.00;97422.16;106801;1253;61218;-78
2023/01/20 03:16:21;;;;;;;75.40;37.30;;;;;;;-0.45;100.00;97420.73;106914;1251;60796;-76
2023/01/20 03:18:48;;;;;;;69.80;34.00;;;;;;;-0.45;100.00;97425.21;106893;1253;60931;-77
2023/01/20 03:21:15;;;;;;;56.90;30.20;;;;;;;-0.46;100.00;97429.65;106759;1251;73716;-76
2023/01/20 03:23:43;;;;;;;66.00;33.10;;;;;;;-0.52;100.00;97428.90;106930;1251;59858;-77
2023/01/20 03:26:12;;;;;;;68.90;31.40;;;;;;;-0.52;100.00;97431.12;107130;1251;72572;-77
2023/01/20 03:28:40;;;;;;;57.20;28.80;;;;;;;-0.54;100.00;97440.12;106912;1251;61425;-76
2023/01/20 03:31:33;;;;;;;60.60;29.00;;;;;;;-0.53;100.00;97442.55;106888;1249;60190;-78
2023/01/20 03:34:00;;;;;;;67.60;30.80;;;;;;;-0.50;100.00;97441.14;106800;1251;73946;-77
2023/01/20 03:36:27;;;;;;;70.00;31.60;;;;;;;-0.47;100.00;97438.80;106935;1251;70649;-76
2023/01/20 03:38:54;;;;;;;64.80;29.90;;;;;;;-0.44;100.00;97436.02;106937;1250;63991;-78
2023/01/20 03:41:29;;;;;;;61.80;29.10;;;;;;;-0.38;100.00;97435.20;106848;1251;60770;-77
2023/01/20 03:44:01;;;;;;;59.10;30.10;;;;;;;-0.34;100.00;97434.44;106790;1250;61144;-78
2023/01/20 03:46:31;;;;;;;60.80;30.20;;;;;;;-0.34;100.00;97432.70;106946;1251;75011;-78
2023/01/20 03:49:27;;;;;;;54.00;27.80;;;;;;;-0.36;100.00;97435.01;106861;1253;69514;-77
2023/01/20 03:52:07;;;;;;;52.60;25.10;;;;;;;-0.40;100.00;97436.05;106858;1251;63957;-77
2023/01/20 03:54:39;;;;;;;53.40;23.20;;;;;;;-0.44;100.00;97436.74;106927;1250;61295;-78
2023/01/20 03:57:09;;;;;;;51.70;23.60;;;;;;;-0.43;100.00;97435.02;106704;1248;59743;-78
2023/01/20 03:59:37;;;;;;;49.70;23.10;;;;;;;-0.44;100.00;97440.64;106926;1248;65907;-77
2023/01/20 04:02:04;;;;;;;57.80;26.70;;;;;;;-0.44;100.00;97442.52;106969;1247;62466;-78
2023/01/20 04:04:32;;;;;;;46.60;23.90;;;;;;;-0.41;100.00;97439.55;107076;1248;71521;-77
2023/01/20 04:06:58;;;;;;;55.10;30.10;;;;;;;-0.38;100.00;97441.64;107011;1253;61966;-76
2023/01/20 04:09:28;;;;;;;58.90;26.60;;;;;;;-0.35;100.00;97445.58;107015;1248;62146;-77
2023/01/20 04:11:54;;;;;;;61.80;33.10;;;;;;;-0.34;100.00;97445.13;106973;1252;65741;-78
2023/01/20 04:14:21;;;;;;;52.40;26.80;;;;;;;-0.33;100.00;97446.66;106763;1251;59832;-77
2023/01/20 04:16:51;;;;;;;65.00;30.60;;;;;;;-0.32;100.00;97451.95;106909;1253;62091;-78
2023/01/20 04:19:17;;;;;;;63.30;33.30;;;;;;;-0.32;100.00;97457.63;106615;1250;60899;-78
2023/01/20 04:21:47;;;;;;;50.00;26.40;;;;;;;-0.36;100.00;97468.08;106914;1251;61330;-76
2023/01/20 04:24:22;;;;;;;47.60;24.80;;;;;;;-0.40;100.00;97471.96;107067;1253;74515;-77
2023/01/20 04:26:49;;;;;;;47.40;26.00;;;;;;;-0.39;100.00;97472.98;107011;1253;70085;-78
2023/01/20 04:29:15;;;;;;;50.70;25.70;;;;;;;-0.38;100.00;97481.21;106936;1253;59757;-77
2023/01/20 04:31:41;;;;;;;48.00;26.50;;;;;;;-0.37;100.00;97482.25;106941;1251;61355;-77
2023/01/20 04:34:11;;;;;;;46.60;24.60;;;;;;;-0.36;100.00;97487.17;107042;1251;61633;-78
2023/01/20 04:36:37;;;;;;;44.30;23.20;;;;;;;-0.36;100.00;97490.63;106689;1251;73904;-77
2023/01/20 04:39:03;;;;;;;55.10;27.70;;;;;;;-0.35;100.00;97492.27;107018;1249;61171;-78
2023/01/20 04:41:30;;;;;;;51.40;27.50;;;;;;;-0.34;100.00;97491.57;106943;1249;61109;-76
2023/01/20 04:43:56;;;;;;;46.30;24.70;;;;;;;-0.32;100.00;97490.56;106979;1251;59882;-78
2023/01/20 04:46:22;;;;;;;60.00;27.90;;;;;;;-0.31;100.00;97496.08;106866;1251;62168;-78
2023/01/20 04:48:49;;;;;;;52.70;26.60;;;;;;;-0.29;100.00;97500.05;106934;1251;60956;-77
2023/01/20 04:51:15;;;;;;;49.80;24.30;;;;;;;-0.26;100.00;97500.60;106894;1251;61219;-76
2023/01/20 04:53:41;;;;;;;48.90;23.70;;;;;;;-0.25;100.00;97498.47;106854;1253;61874;-76
2023/01/20 04:56:11;;;;;;;50.40;25.90;;;;;;;-0.25;100.00;97501.14;106902;1253;59905;-78
2023/01/20 04:58:38;;;;;;;56.90;26.80;;;;;;;-0.25;100.00;97500.56;106982;1247;59709;-78
2023/01/20 05:01:05;;;;;;;53.70;25.90;;;;;;;-0.23;100.00;97504.23;106912;1248;74542;-78
2023/01/20 05:03:32;;;;;;;67.50;31.60;;;;;;;-0.22;100.00;97506.21;106879;1247;61138;-77
2023/01/20 05:05:58;;;;;;;58.40;30.50;;;;;;;-0.23;100.00;97503.27;106964;1248;62833;-77
2023/01/20 05:08:24;;;;;;;60.40;29.90;;;;;;;-0.24;100.00;97508.50;106949;1248;59740;-78
2023/01/20 05:10:51;;;;;;;53.80;27.30;;;;;;;-0.24;100.00;97507.80;106951;1252;62090;-78
2023/01/20 05:13:17;;;;;;;61.10;26.90;;;;;;;-0.24;100.00;97509.52;107010;1251;61944;-78
2023/01/20 05:15:44;;;;;;;53.80;26.90;;;;;;;-0.25;100.00;97512.48;106947;1253;60978;-77
2023/01/20 05:18:10;;;;;;;58.50;27.00;;;;;;;-0.25;100.00;97511.30;107019;1248;61431;-76
2023/01/20 05:20:36;;;;;;;56.70;30.10;;;;;;;-0.24;100.00;97515.59;106917;1248;61416;-78
2023/01/20 05:23:03;;;;;;;85.20;39.00;;;;;;;-0.23;100.00;97522.45;106950;1248;62161;-78
2023/01/20 05:25:29;;;;;;;96.20;46.80;;;;;;;-0.22;100.00;97524.97;106862;1248;60891;-78
2023/01/20 05:27:56;;;;;;;90.50;43.00;;;;;;;-0.22;100.00;97524.11;107003;1248;59891;-78
2023/01/20 05:30:23;;;;;;;70.80;36.40;;;;;;;-0.24;100.00;97522.14;106838;1253;60705;-78
2023/01/20 05:32:50;;;;;;;72.80;36.60;;;;;;;-0.28;100.00;97523.61;106810;1248;61125;-77
2023/01/20 05:35:17;;;;;;;90.30;40.20;;;;;;;-0.34;100.00;97523.63;106956;1247;61739;-79
2023/01/20 05:37:43;;;;;;;90.40;48.00;;;;;;;-0.36;100.00;97522.59;106763;1248;59983;-78
2023/01/20 05:40:10;;;;;;;63.00;32.50;;;;;;;-0.36;100.00;97522.33;106991;1250;61192;-77
2023/01/20 05:42:36;;;;;;;73.80;38.40;;;;;;;-0.41;100.00;97525.91;107006;1248;71419;-78
2023/01/20 05:45:03;;;;;;;73.10;36.50;;;;;;;-0.45;100.00;97530.38;107006;1253;62015;-76
2023/01/20 05:47:30;;;;;;;76.20;36.90;;;;;;;-0.48;100.00;97531.29;106975;1248;61214;-78
2023/01/20 05:49:56;;;;;;;61.40;32.40;;;;;;;-0.52;100.00;97535.95;106974;1248;61209;-76
2023/01/20 05:52:22;;;;;;;65.10;33.80;;;;;;;-0.55;100.00;97539.38;107001;1248;61758;-78
2023/01/20 05:54:49;;;;;;;60.50;30.70;;;;;;;-0.54;100.00;97539.61;106954;1253;62040;-77
2023/01/20 05:57:17;;;;;;;72.00;31.10;;;;;;;-0.59;100.00;97540.73;106957;1254;59812;-77
2023/01/20 05:59:46;;;;;;;59.50;31.20;;;;;;;-0.62;100.00;97541.90;106978;1248;60966;-78
2023/01/20 06:02:14;;;;;;;69.40;33.40;;;;;;;-0.61;100.00;97544.80;106978;1248;64912;-78
2023/01/20 06:04:41;;;;;;;65.20;31.60;;;;;;;-0.59;100.00;97543.85;106958;1248;62426;-77
2023/01/20 06:07:07;;;;;;;60.50;30.60;;;;;;;-0.60;100.00;97544.26;106930;1248;61329;-78
2023/01/20 06:09:33;;;;;;;69.20;33.40;;;;;;;-0.59;100.00;97549.66;106793;1248;62104;-78
2023/01/20 06:12:00;;;;;;;70.40;34.80;;;;;;;-0.59;100.00;97549.09;106982;1248;60010;-78
2023/01/20 06:14:27;;;;;;;56.40;28.20;;;;;;;-0.59;100.00;97554.86;106982;1248;59877;-78
2023/01/20 06:16:53;;;;;;;57.00;30.10;;;;;;;-0.63;100.00;97557.19;106935;1252;61036;-77
2023/01/20 06:19:19;;;;;;;55.60;27.90;;;;;;;-0.74;100.00;97559.70;106911;1253;61326;-78
2023/01/20 06:21:46;;;;;;;56.10;27.60;;;;;;;-0.74;100.00;97563.39;106942;1247;59882;-78
2023/01/20 06:24:13;;;;;;;72.70;34.60;;;;;;;-0.70;100.00;97564.66;106973;1253;62014;-77
2023/01/20 06:26:39;;;;;;;62.70;30.80;;;;;;;-0.67;100.00;97564.58;106934;1253;61550;-78
2023/01/20 06:29:05;;;;;;;64.00;29.00;;;;;;;-0.66;100.00;97566.09;107007;1248;59918;-77
2023/01/20 06:31:32;;;;;;;59.90;28.20;;;;;;;-0.65;100.00;97568.96;106966;1253;59989;-76
2023/01/20 06:33:58;;;;;;;51.20;27.00;;;;;;;-0.66;100.00;97567.73;106979;1248;61338;-77
2023/01/20 06:36:24;;;;;;;60.70;31.00;;;;;;;-0.68;100.00;97565.98;106958;1252;61229;-77
2023/01/20 06:38:51;;;;;;;68.70;29.20;;;;;;;-0.79;100.00;97567.32;106949;1248;62101;-78
2023/01/20 06:41:19;;;;;;;63.80;29.60;;;;;;;-0.80;100.00;97566.18;107001;1247;60920;-78
2023/01/20 06:43:45;;;;;;;55.10;28.80;;;;;;;-0.87;100.00;97570.91;107183;1253;63938;-77
2023/01/20 06:46:13;;;;;;;54.20;25.50;;;;;;;-0.94;100.00;97578.79;106923;1253;61311;-79
2023/01/20 06:48:40;;;;;;;62.80;28.30;;;;;;;-0.97;100.00;97578.92;107085;1247;59810;-77
2023/01/20 06:51:12;;;;;;;68.30;30.20;;;;;;;-0.95;100.00;97578.83;108276;1250;66322;-76
2023/01/20 06:53:39;;;;;;;62.00;31.70;;;;;;;-0.97;100.00;97579.90;107334;1251;62097;-76
2023/01/20 06:56:06;;;;;;;64.60;30.70;;;;;;;-0.93;100.00;97573.66;106970;1250;64311;-79
2023/01/20 06:58:33;;;;;;;111.80;50.80;;;;;;;-0.94;100.00;97570.89;107035;1253;61230;-78
2023/01/20 07:01:05;;;;;;;169.00;80.60;;;;;;;-0.99;100.00;97566.96;107149;1251;286112;-76
2023/01/20 07:03:31;;;;;;;383.20;184.40;;;;;;;-0.98;100.00;97569.44;109306;1250;74527;-78
2023/01/20 07:06:02;;;;;;;189.50;98.30;;;;;;;-1.01;100.00;97570.86;109308;1251;60382;-77
2023/01/20 07:08:29;;;;;;;138.80;64.60;;;;;;;-1.07;100.00;97573.20;108263;1254;65373;-77
2023/01/20 07:10:56;;;;;;;108.90;53.50;;;;;;;-1.02;100.00;97574.73;107834;1249;59810;-76
2023/01/20 07:13:22;;;;;;;92.70;46.40;;;;;;;-0.99;100.00;97578.24;108166;1252;61391;-76
2023/01/20 07:15:48;;;;;;;141.20;69.90;;;;;;;-1.02;100.00;97579.21;107660;1252;61341;-76
2023/01/20 07:18:15;;;;;;;119.00;69.20;;;;;;;-1.02;100.00;97576.27;107182;1253;61331;-78
2023/01/20 07:20:42;;;;;;;81.90;44.70;;;;;;;-1.02;100.00;97579.42;107992;1253;59887;-77
2023/01/20 07:23:09;;;;;;;74.20;36.50;;;;;;;-0.99;100.00;97583.33;108069;1252;61190;-78
2023/01/20 07:25:36;;;;;;;70.50;35.20;;;;;;;-0.95;100.00;97583.41;107289;1251;61269;-78
2023/01/20 07:28:03;;;;;;;101.20;46.90;;;;;;;-0.96;100.00;97587.91;107363;1251;73452;-77
2023/01/20 07:30:30;;;;;;;73.30;30.20;;;;;;;-0.97;100.00;97592.77;108095;1252;61965;-78
2023/01/20 07:32:57;;;;;;;91.70;43.60;;;;;;;-0.93;100.00;97594.73;109643;1247;71959;-78
2023/01/20 07:35:23;;;;;;;84.10;40.20;;;;;;;-0.94;100.00;97597.27;109515;1249;59940;-78
2023/01/20 07:37:50;;;;;;;87.60;46.60;;;;;;;-0.90;100.00;97600.89;109350;1251;59327;-77
2023/01/20 07:40:16;;;;;;;72.80;40.10;;;;;;;-0.87;100.00;97600.27;109255;1253;62281;-78
2023/01/20 07:42:43;;;;;;;64.40;32.60;;;;;;;-0.81;100.00;97605.57;109484;1252;59031;-77
2023/01/20 07:45:09;;;;;;;83.60;41.80;;;;;;;-0.79;100.00;97605.30;108473;1251;61996;-77
2023/01/20 07:47:36;;;;;;;179.90;77.10;;;;;;;-0.82;100.00;97606.88;107284;1248;60924;-76
2023/01/20 07:50:02;;;;;;;108.50;64.20;;;;;;;-0.83;100.00;97610.21;107484;1250;59995;-78
2023/01/20 07:52:29;;;;;;;155.20;71.30;;;;;;;-0.79;100.00;97612.88;108591;1253;75669;-78
2023/01/20 07:54:55;;;;;;;91.10;45.20;;;;;;;-0.72;100.00;97614.87;107280;1249;60835;-78
2023/01/20 07:57:22;;;;;;;127.00;77.00;;;;;;;-0.69;100.00;97620.48;107035;1251;62072;-77
2023/01/20 07:59:48;;;;;;;90.80;48.70;;;;;;;-0.67;100.00;97621.58;107048;1251;60922;-78
2023/01/20 08:02:14;;;;;;;70.30;33.40;;;;;;;-0.63;100.00;97621.42;107951;1248;59831;-77
2023/01/20 08:04:41;;;;;;;63.20;33.50;;;;;;;-0.60;100.00;97623.38;108380;1252;59894;-78
2023/01/20 08:07:07;;;;;;;74.90;38.60;;;;;;;-0.59;100.00;97622.38;107759;1251;61071;-76
2023/01/20 08:09:34;;;;;;;247.10;114.90;;;;;;;-0.57;100.00;97623.80;108250;1248;59824;-78
2023/01/20 08:12:01;;;;;;;151.90;62.90;;;;;;;-0.58;100.00;97625.90;109345;1248;59002;-77
2023/01/20 08:14:27;;;;;;;86.90;40.20;;;;;;;-0.60;100.00;97623.33;109720;1250;59200;-78
2023/01/20 08:16:54;;;;;;;78.20;45.80;;;;;;;-0.59;100.00;97625.90;109529;1251;59242;-77
2023/01/20 08:19:20;;;;;;;96.40;53.30;;;;;;;-0.62;100.00;97628.74;108590;1247;59276;-77
2023/01/20 08:21:46;;;;;;;93.10;48.00;;;;;;;-0.63;100.00;97637.30;109136;1248;59336;-76
2023/01/20 08:24:13;;;;;;;100.80;47.50;;;;;;;-0.67;100.00;97636.12;108336;1248;59759;-78
2023/01/20 08:26:39;;;;;;;101.60;46.60;;;;;;;-0.67;100.00;97636.73;107129;1251;61323;-78
2023/01/20 08:29:07;;;;;;;70.20;33.20;;;;;;;-0.66;100.00;97635.54;107590;1248;61955;-78
2023/01/20 08:31:34;;;;;;;144.50;60.50;;;;;;;-0.67;100.00;97636.27;108457;1253;61339;-78
2023/01/20 08:34:00;;;;;;;96.20;46.90;;;;;;;-0.66;100.00;97636.23;107790;1247;62830;-76
2023/01/20 08:36:29;;;;;;;58.70;29.50;;;;;;;-0.62;100.00;97644.55;107138;1252;61329;-76
2023/01/20 08:38:56;;;;;;;69.70;30.30;;;;;;;-0.56;100.00;97648.88;107259;1248;60932;-78
2023/01/20 08:41:25;;;;;;;72.10;34.00;;;;;;;-0.55;100.00;97650.85;108566;1247;74632;-76
2023/01/20 08:43:51;;;;;;;62.20;29.40;;;;;;;-0.50;100.00;97654.54;107649;1250;69879;-78
2023/01/20 08:46:18;;;;;;;81.00;40.50;;;;;;;-0.51;100.00;97653.19;107542;1248;72581;-78
2023/01/20 08:48:45;;;;;;;194.30;140.60;;;;;;;-0.51;100.00;97655.84;106937;1254;61209;-78
2023/01/20 08:51:14;;;;;;;96.60;53.60;;;;;;;-0.49;100.00;97657.80;107937;1247;61245;-78
2023/01/20 08:53:41;;;;;;;111.00;49.20;;;;;;;-0.47;100.00;97657.55;107461;1253;66304;-78
2023/01/20 08:56:07;;;;;;;70.70;34.40;;;;;;;-0.40;100.00;97655.76;106975;1251;62029;-78
2023/01/20 08:58:34;;;;;;;63.20;29.50;;;;;;;-0.40;100.00;97658.17;107104;1248;59846;-77
2023/01/20 09:01:06;;;;;;;88.30;39.70;;;;;;;-0.41;100.00;97657.52;107990;1248;59738;-79
2023/01/20 09:03:33;;;;;;;65.80;33.00;;;;;;;-0.38;100.00;97658.59;108728;1251;59889;-77
2023/01/20 09:06:03;;;;;;;82.60;42.00;;;;;;;-0.34;100.00;97663.13;107096;1251;74518;-78
2023/01/20 09:08:29;;;;;;;59.20;28.60;;;;;;;-0.29;100.00;97663.96;107175;1248;62421;-78
2023/01/20 09:11:07;;;;;;;64.80;28.40;;;;;;;-0.23;100.00;97664.90;107944;1251;59740;-78
2023/01/20 09:13:33;;;;;;;69.00;35.00;;;;;;;-0.18;100.00;97669.45;107916;1251;60786;-77
2023/01/20 09:15:59;;;;;;;84.90;44.00;;;;;;;-0.14;100.00;97673.48;107157;1249;60866;-78
2023/01/20 09:18:26;;;;;;;89.40;47.90;;;;;;;-0.13;100.00;97674.91;107484;1251;61148;-77
2023/01/20 09:20:52;;;;;;;65.70;34.30;;;;;;;-0.09;100.00;97673.36;107112;1251;59887;-77
2023/01/20 09:23:19;;;;;;;84.10;38.60;;;;;;;-0.06;100.00;97671.77;107320;1247;61467;-76
2023/01/20 09:25:46;;;;;;;76.50;34.40;;;;;;;-0.03;100.00;97670.59;107234;1250;60864;-77
2023/01/20 09:28:13;;;;;;;98.20;47.50;;;;;;;0.03;100.00;97667.63;107479;1253;60916;-78
2023/01/20 09:30:41;;;;;;;106.60;57.40;;;;;;;0.03;100.00;97667.38;107639;1251;72472;-76
2023/01/20 09:33:11;;;;;;;78.70;39.70;;;;;;;0.04;100.00;97663.92;107955;1251;71387;-79
2023/01/20 09:35:37;;;;;;;69.60;33.60;;;;;;;0.06;100.00;97660.66;107234;1251;72593;-76
2023/01/20 09:44:16;;;;;;;87.40;49.20;;;;;;;0.03;100.00;97657.42;107413;1251;65919;-76
2023/01/20 09:47:18;;;;;;;103.50;57.60;;;;;;;-0.01;100.00;97661.84;107104;1250;70232;-76
2023/01/20 09:55:48;;;;;;;124.30;66.40;;;;;;;-0.03;100.00;97658.05;107642;1248;59887;-77
2023/01/20 09:58:36;;;;;;;133.50;76.70;;;;;;;-0.08;100.00;97659.41;107247;1249;64914;-77
2023/01/20 10:01:30;;;;;;;120.60;62.20;;;;;;;-0.10;100.00;97658.79;108363;1247;69863;-78
2023/01/20 10:04:04;;;;;;;134.90;64.70;;;;;;;-0.10;100.00;97653.99;108395;1248;71936;-76
2023/01/20 10:06:55;;;;;;;120.60;57.50;;;;;;;-0.12;100.00;97656.39;107646;1247;61240;-78
2023/01/20 10:09:34;;;;;;;99.10;49.40;;;;;;;-0.20;100.00;97653.11;107508;1247;61103;-76
2023/01/20 10:12:23;;;;;;;79.60;39.80;;;;;;;-0.25;100.00;97650.21;108893;1248;66018;-79
2023/01/20 10:14:54;;;;;;;;;;;;;;;-0.36;100.00;97647.69;107578;1247;62418;-77
2023/01/20 10:17:30;;;;;;;77.10;37.60;;;;;;;-0.49;100.00;97646.24;108091;1247;71503;-77
2023/01/20 10:20:06;;;;;;;104.10;59.80;;;;;;;-0.54;100.00;97647.22;107503;1251;60907;-76
2023/01/20 10:22:44;;;;;;;93.20;54.70;;;;;;;-0.51;100.00;97647.84;109386;1249;58900;-76
2023/01/20 10:25:27;;;;;;;89.50;47.80;;;;;;;-0.47;100.00;97647.05;107692;1247;65909;-78
2023/01/20 10:28:07;;;;;;;86.20;48.80;;;;;;;-0.52;100.00;97648.27;107418;1247;72211;-76
2023/01/20 10:30:34;;;;;;;91.20;46.20;;;;;;;-0.49;100.00;97644.03;107694;1247;64455;-76
2023/01/20 10:33:05;;;;;;;100.30;46.80;;;;;;;-0.34;100.00;97640.83;108134;1247;59760;-77
2023/01/20 10:35:35;;;;;;;123.90;73.30;;;;;;;-0.26;100.00;97642.27;107122;1253;61765;-78
2023/01/20 10:38:05;;;;;;;184.10;104.60;;;;;;;-0.26;100.00;97648.29;107061;1248;73448;-76
2023/01/20 10:40:43;;;;;;;188.70;101.40;;;;;;;-0.23;100.00;97647.45;107453;1248;71474;-78
2023/01/20 10:43:14;;;;;;;173.10;98.50;;;;;;;-0.14;100.00;97655.17;108140;1248;63469;-78
2023/01/20 10:45:43;;;;;;;148.40;89.50;;;;;;;-0.05;100.00;97660.66;107256;1253;61947;-78
2023/01/20 10:48:34;;;;;;;105.00;58.80;;;;;;;0.00;100.00;97661.30;107443;1248;59789;-78
2023/01/20 10:51:05;;;;;;;83.90;43.60;;;;;;;0.06;100.00;97656.49;108363;1250;74267;-78
2023/01/20 10:53:43;;;;;;;88.90;44.40;;;;;;;0.10;100.00;97652.06;108395;1247;70470;-76
2023/01/20 10:56:42;;;;;;;84.20;45.00;;;;;;;0.16;100.00;97650.14;108203;1250;72402;-79
2023/01/20 10:59:12;;;;;;;77.90;38.70;;;;;;;0.17;100.00;97649.68;109010;1250;59032;-79
2023/01/20 11:01:39;;;;;;;87.40;43.50;;;;;;;0.12;100.00;97641.72;109658;1247;58985;-78
2023/01/20 11:04:08;;;;;;;69.10;34.40;;;;;;;0.11;100.00;97639.84;109149;1247;73411;-78
2023/01/20 11:06:34;;;;;;;;;;;;;;;-0.02;100.00;97636.83;107124;1247;62433;-78
2023/01/20 11:09:14;;;;;;;104.50;57.40;;;;;;;-0.14;100.00;97626.41;108789;1247;61350;-75
2023/01/20 11:11:41;;;;;;;93.60;49.60;;;;;;;-0.16;100.00;97619.73;108716;1251;58994;-76
2023/01/20 11:14:07;;;;;;;99.30;52.20;;;;;;;-0.27;100.00;97619.67;107299;1247;61352;-76
2023/01/20 11:16:36;;;;;;;105.20;54.00;;;;;;;-0.22;100.00;97616.05;107318;1247;61975;-78
2023/01/20 11:19:04;;;;;;;91.50;45.60;;;;;;;-0.25;100.00;97617.08;107090;1248;71039;-76
2023/01/20 11:21:35;;;;;;;68.20;35.40;;;;;;;-0.29;100.00;97614.73;108602;1247;62867;-76
2023/01/20 11:24:36;;;;;;;103.90;49.70;;;;;;;-0.31;100.00;97604.00;107866;1247;62110;-76